sensor_id;sensor_type;location;lat;lon;timestamp;temperature;humidity
49679;DHT22;35570;48.218;16.326;2023-04-03T00:01:00;6.70;74.50
49679;DHT22;35570;48.218;16.326;2023-04-03T00:06:02;7.30;76.40
49679;DHT22;35570;48.218;16.326;2023-04-03T00:08:30;7.20;74.00
49679;DHT22;35570;48.218;16.326;2023-04-03T00:26:40;7.20;74.30
49679;DHT22;35570;48.218;16.326;2023-04-03T00:29:07;7.20;84.90
49679;DHT22;35570;48.218;16.326;2023-04-03T00:31:33;7.30;79.00
49679;DHT22;35570;48.218;16.326;2023-04-03T00:34:04;7.30;83.50
49679;DHT22;35570;48.218;16.326;2023-04-03T00:36:30;7.40;82.90
49679;DHT22;35570;48.218;16.326;2023-04-03T00:39:00;7.50;78.30
49679;DHT22;35570;48.218;16.326;2023-04-03T00:41:25;7.40;76.80
49679;DHT22;35570;48.218;16.326;2023-04-03T00:47:32;7.40;77.00
49679;DHT22;35570;48.218;16.326;2023-04-03T00:53:37;7.20;76.20
49679;DHT22;35570;48.218;16.326;2023-04-03T00:56:38;7.20;78.60
49679;DHT22;35570;48.218;16.326;2023-04-03T00:59:32;7.20;78.60
49679;DHT22;35570;48.218;16.326;2023-04-03T01:02:05;7.10;76.30
49679;DHT22;35570;48.218;16.326;2023-04-03T01:04:34;7.10;77.70
49679;DHT22;35570;48.218;16.326;2023-04-03T01:07:07;7.00;78.50
49679;DHT22;35570;48.218;16.326;2023-04-03T01:10:11;7.00;77.90
49679;DHT22;35570;48.218;16.326;2023-04-03T01:12:50;7.00;80.50
49679;DHT22;35570;48.218;16.326;2023-04-03T01:15:20;6.90;78.20
49679;DHT22;35570;48.218;16.326;2023-04-03T01:17:51;6.90;78.40
49679;DHT22;35570;48.218;16.326;2023-04-03T01:26:43;6.90;79.20
49679;DHT22;35570;48.218;16.326;2023-04-03T01:29:33;6.90;78.70
49679;DHT22;35570;48.218;16.326;2023-04-03T01:32:34;6.90;80.20
49679;DHT22;35570;48.218;16.326;2023-04-03T01:35:00;7.00;79.50
49679;DHT22;35570;48.218;16.326;2023-04-03T01:37:44;7.00;80.00
49679;DHT22;35570;48.218;16.326;2023-04-03T01:40:15;7.00;79.70
49679;DHT22;35570;48.218;16.326;2023-04-03T01:43:00;6.90;81.00
49679;DHT22;35570;48.218;16.326;2023-04-03T01:45:26;7.00;80.00
49679;DHT22;35570;48.218;16.326;2023-04-03T01:47:51;7.00;79.80
49679;DHT22;35570;48.218;16.326;2023-04-03T01:50:18;7.00;78.90
49679;DHT22;35570;48.218;16.326;2023-04-03T01:52:52;6.90;81.20
49679;DHT22;35570;48.218;16.326;2023-04-03T01:55:18;6.90;79.10
49679;DHT22;35570;48.218;16.326;2023-04-03T01:57:52;6.90;80.20
49679;DHT22;35570;48.218;16.326;2023-04-03T02:00:22;6.80;78.90
49679;DHT22;35570;48.218;16.326;2023-04-03T02:02:54;6.90;81.20
49679;DHT22;35570;48.218;16.326;2023-04-03T02:05:22;6.90;79.90
49679;DHT22;35570;48.218;16.326;2023-04-03T02:08:05;6.80;79.90
49679;DHT22;35570;48.218;16.326;2023-04-03T02:10:31;6.80;81.20
49679;DHT22;35570;48.218;16.326;2023-04-03T02:13:02;6.80;79.70
49679;DHT22;35570;48.218;16.326;2023-04-03T02:15:34;6.80;79.30
49679;DHT22;35570;48.218;16.326;2023-04-03T02:18:22;6.80;82.80
49679;DHT22;35570;48.218;16.326;2023-04-03T02:20:53;6.80;81.00
49679;DHT22;35570;48.218;16.326;2023-04-03T02:23:27;6.80;79.80
49679;DHT22;35570;48.218;16.326;2023-04-03T02:26:05;6.80;82.30
49679;DHT22;35570;48.218;16.326;2023-04-03T02:28:36;6.80;80.30
49679;DHT22;35570;48.218;16.326;2023-04-03T02:31:05;6.80;80.90
49679;DHT22;35570;48.218;16.326;2023-04-03T02:33:43;6.80;81.20
49679;DHT22;35570;48.218;16.326;2023-04-03T02:36:09;6.80;82.00
49679;DHT22;35570;48.218;16.326;2023-04-03T02:38:53;6.70;80.50
49679;DHT22;35570;48.218;16.326;2023-04-03T02:41:19;6.70;85.40
49679;DHT22;35570;48.218;16.326;2023-04-03T02:43:50;6.80;82.90
49679;DHT22;35570;48.218;16.326;2023-04-03T02:46:17;6.80;82.40
49679;DHT22;35570;48.218;16.326;2023-04-03T02:49:02;6.80;82.20
49679;DHT22;35570;48.218;16.326;2023-04-03T02:51:56;6.80;82.20
49679;DHT22;35570;48.218;16.326;2023-04-03T02:54:41;6.80;83.10
49679;DHT22;35570;48.218;16.326;2023-04-03T02:57:07;6.80;82.10
49679;DHT22;35570;48.218;16.326;2023-04-03T02:59:55;6.80;82.50
49679;DHT22;35570;48.218;16.326;2023-04-03T03:02:27;6.70;82.80
49679;DHT22;35570;48.218;16.326;2023-04-03T03:04:52;6.80;83.20
49679;DHT22;35570;48.218;16.326;2023-04-03T03:07:38;6.80;84.80
49679;DHT22;35570;48.218;16.326;2023-04-03T03:10:10;6.80;81.30
49679;DHT22;35570;48.218;16.326;2023-04-03T03:12:36;6.80;81.60
49679;DHT22;35570;48.218;16.326;2023-04-03T03:15:10;6.80;83.20
49679;DHT22;35570;48.218;16.326;2023-04-03T03:17:37;6.80;83.10
49679;DHT22;35570;48.218;16.326;2023-04-03T03:20:08;6.80;82.20
49679;DHT22;35570;48.218;16.326;2023-04-03T03:22:35;6.80;79.40
49679;DHT22;35570;48.218;16.326;2023-04-03T03:25:01;6.70;81.30
49679;DHT22;35570;48.218;16.326;2023-04-03T03:27:46;6.70;79.60
49679;DHT22;35570;48.218;16.326;2023-04-03T03:39:34;6.60;80.30
49679;DHT22;35570;48.218;16.326;2023-04-03T03:45:22;6.10;79.90
49679;DHT22;35570;48.218;16.326;2023-04-03T03:47:48;6.30;82.20
49679;DHT22;35570;48.218;16.326;2023-04-03T03:55:46;6.60;82.60
49679;DHT22;35570;48.218;16.326;2023-04-03T03:58:30;6.60;81.30
49679;DHT22;35570;48.218;16.326;2023-04-03T04:03:48;6.70;81.10
49679;DHT22;35570;48.218;16.326;2023-04-03T04:06:37;6.50;81.20
49679;DHT22;35570;48.218;16.326;2023-04-03T04:09:27;6.60;83.70
49679;DHT22;35570;48.218;16.326;2023-04-03T04:15:25;6.60;85.00
49679;DHT22;35570;48.218;16.326;2023-04-03T04:23:37;6.50;83.60
49679;DHT22;35570;48.218;16.326;2023-04-03T04:26:23;7.70;83.80
49679;DHT22;35570;48.218;16.326;2023-04-03T04:29:15;7.10;82.00
49679;DHT22;35570;48.218;16.326;2023-04-03T04:31:50;6.40;83.00
49679;DHT22;35570;48.218;16.326;2023-04-03T04:36:57;6.50;84.30
49679;DHT22;35570;48.218;16.326;2023-04-03T04:39:27;6.40;82.70
49679;DHT22;35570;48.218;16.326;2023-04-03T04:42:14;6.30;82.40
49679;DHT22;35570;48.218;16.326;2023-04-03T04:44:42;6.40;82.80
49679;DHT22;35570;48.218;16.326;2023-04-03T04:50:20;6.30;80.80
49679;DHT22;35570;48.218;16.326;2023-04-03T04:53:14;6.50;84.40
49679;DHT22;35570;48.218;16.326;2023-04-03T04:55:46;6.40;83.80
49679;DHT22;35570;48.218;16.326;2023-04-03T04:58:36;6.30;81.90
49679;DHT22;35570;48.218;16.326;2023-04-03T05:01:03;6.30;81.40
49679;DHT22;35570;48.218;16.326;2023-04-03T05:03:29;6.30;81.80
49679;DHT22;35570;48.218;16.326;2023-04-03T05:06:14;6.30;84.40
49679;DHT22;35570;48.218;16.326;2023-04-03T05:08:40;6.30;83.40
49679;DHT22;35570;48.218;16.326;2023-04-03T05:11:12;6.00;80.90
49679;DHT22;35570;48.218;16.326;2023-04-03T05:13:43;6.30;82.30
49679;DHT22;35570;48.218;16.326;2023-04-03T05:16:34;6.30;84.00
49679;DHT22;35570;48.218;16.326;2023-04-03T05:19:01;6.40;84.00
49679;DHT22;35570;48.218;16.326;2023-04-03T05:21:27;6.40;84.00
49679;DHT22;35570;48.218;16.326;2023-04-03T05:24:20;6.40;82.10
49679;DHT22;35570;48.218;16.326;2023-04-03T05:26:55;6.20;79.60
49679;DHT22;35570;48.218;16.326;2023-04-03T05:29:23;6.40;80.40
49679;DHT22;35570;48.218;16.326;2023-04-03T05:31:54;6.90;82.40
49679;DHT22;35570;48.218;16.326;2023-04-03T05:34:26;6.40;80.50
49679;DHT22;35570;48.218;16.326;2023-04-03T05:36:59;5.70;81.30
49679;DHT22;35570;48.218;16.326;2023-04-03T05:39:32;6.50;80.60
49679;DHT22;35570;48.218;16.326;2023-04-03T05:42:15;6.50;80.30
49679;DHT22;35570;48.218;16.326;2023-04-03T05:44:58;6.60;81.20
49679;DHT22;35570;48.218;16.326;2023-04-03T05:47:34;6.40;78.60
49679;DHT22;35570;48.218;16.326;2023-04-03T05:50:00;6.50;78.20
49679;DHT22;35570;48.218;16.326;2023-04-03T05:52:40;6.40;79.20
49679;DHT22;35570;48.218;16.326;2023-04-03T05:55:26;6.50;78.30
49679;DHT22;35570;48.218;16.326;2023-04-03T05:58:17;6.50;79.20
49679;DHT22;35570;48.218;16.326;2023-04-03T06:01:01;6.50;78.60
49679;DHT22;35570;48.218;16.326;2023-04-03T06:03:51;6.50;77.90
49679;DHT22;35570;48.218;16.326;2023-04-03T06:06:17;6.70;78.60
49679;DHT22;35570;48.218;16.326;2023-04-03T06:11:22;6.70;78.70
49679;DHT22;35570;48.218;16.326;2023-04-03T06:13:49;6.70;78.10
49679;DHT22;35570;48.218;16.326;2023-04-03T06:18:52;6.80;77.60
49679;DHT22;35570;48.218;16.326;2023-04-03T06:21:23;6.70;76.20
49679;DHT22;35570;48.218;16.326;2023-04-03T06:23:51;6.60;74.60
49679;DHT22;35570;48.218;16.326;2023-04-03T06:26:18;6.60;75.10
49679;DHT22;35570;48.218;16.326;2023-04-03T06:29:04;6.70;76.10
49679;DHT22;35570;48.218;16.326;2023-04-03T06:31:47;5.20;75.30
49679;DHT22;35570;48.218;16.326;2023-04-03T06:40:00;6.80;74.30
49679;DHT22;35570;48.218;16.326;2023-04-03T06:42:26;6.80;79.40
49679;DHT22;35570;48.218;16.326;2023-04-03T06:44:52;6.90;79.60
49679;DHT22;35570;48.218;16.326;2023-04-03T06:47:17;7.00;77.40
49679;DHT22;35570;48.218;16.326;2023-04-03T06:49:44;7.10;76.30
49679;DHT22;35570;48.218;16.326;2023-04-03T06:52:11;7.10;75.40
49679;DHT22;35570;48.218;16.326;2023-04-03T06:54:39;7.00;75.00
49679;DHT22;35570;48.218;16.326;2023-04-03T06:57:04;7.00;74.70
49679;DHT22;35570;48.218;16.326;2023-04-03T06:59:31;6.90;75.00
49679;DHT22;35570;48.218;16.326;2023-04-03T07:01:57;6.90;72.40
49679;DHT22;35570;48.218;16.326;2023-04-03T07:04:25;6.90;73.70
49679;DHT22;35570;48.218;16.326;2023-04-03T07:06:52;6.90;72.90
49679;DHT22;35570;48.218;16.326;2023-04-03T07:09:19;6.90;73.20
49679;DHT22;35570;48.218;16.326;2023-04-03T07:11:46;7.00;72.00
49679;DHT22;35570;48.218;16.326;2023-04-03T07:14:11;7.00;70.80
49679;DHT22;35570;48.218;16.326;2023-04-03T07:16:37;7.00;69.80
49679;DHT22;35570;48.218;16.326;2023-04-03T07:19:05;7.00;69.90
49679;DHT22;35570;48.218;16.326;2023-04-03T07:21:31;7.00;69.90
49679;DHT22;35570;48.218;16.326;2023-04-03T07:23:57;7.00;69.20
49679;DHT22;35570;48.218;16.326;2023-04-03T07:26:29;7.10;70.90
49679;DHT22;35570;48.218;16.326;2023-04-03T07:28:55;7.10;68.00
49679;DHT22;35570;48.218;16.326;2023-04-03T07:31:23;7.10;67.90
49679;DHT22;35570;48.218;16.326;2023-04-03T07:33:55;7.20;69.80
49679;DHT22;35570;48.218;16.326;2023-04-03T07:36:22;7.30;69.80
49679;DHT22;35570;48.218;16.326;2023-04-03T07:38:49;7.40;68.90
49679;DHT22;35570;48.218;16.326;2023-04-03T07:41:21;7.50;66.80
49679;DHT22;35570;48.218;16.326;2023-04-03T07:43:54;7.50;68.10
49679;DHT22;35570;48.218;16.326;2023-04-03T07:46:22;7.70;68.50
49679;DHT22;35570;48.218;16.326;2023-04-03T07:49:14;7.90;66.30
49679;DHT22;35570;48.218;16.326;2023-04-03T07:51:45;8.00;65.90
49679;DHT22;35570;48.218;16.326;2023-04-03T07:54:15;8.10;66.10
49679;DHT22;35570;48.218;16.326;2023-04-03T07:57:00;8.20;63.60
49679;DHT22;35570;48.218;16.326;2023-04-03T07:59:36;8.30;64.50
49679;DHT22;35570;48.218;16.326;2023-04-03T08:02:12;8.50;63.80
49679;DHT22;35570;48.218;16.326;2023-04-03T08:04:37;8.60;62.70
49679;DHT22;35570;48.218;16.326;2023-04-03T08:07:26;8.60;62.20
49679;DHT22;35570;48.218;16.326;2023-04-03T08:09:59;8.90;63.80
49679;DHT22;35570;48.218;16.326;2023-04-03T08:12:46;9.10;63.00
49679;DHT22;35570;48.218;16.326;2023-04-03T08:18:34;9.70;60.70
49679;DHT22;35570;48.218;16.326;2023-04-03T08:21:17;9.80;58.60
49679;DHT22;35570;48.218;16.326;2023-04-03T08:27:05;10.30;60.10
49679;DHT22;35570;48.218;16.326;2023-04-03T08:29:33;10.70;57.30
49679;DHT22;35570;48.218;16.326;2023-04-03T08:32:16;10.90;57.40
49679;DHT22;35570;48.218;16.326;2023-04-03T08:35:06;10.90;54.50
49679;DHT22;35570;48.218;16.326;2023-04-03T08:37:35;11.00;56.00
49679;DHT22;35570;48.218;16.326;2023-04-03T08:40:12;11.10;53.70
49679;DHT22;35570;48.218;16.326;2023-04-03T08:42:57;11.20;53.50
49679;DHT22;35570;48.218;16.326;2023-04-03T08:50:42;10.20;52.10
49679;DHT22;35570;48.218;16.326;2023-04-03T08:53:15;9.90;52.80
49679;DHT22;35570;48.218;16.326;2023-04-03T08:55:46;9.80;54.50
49679;DHT22;35570;48.218;16.326;2023-04-03T09:03:23;9.90;53.90
49679;DHT22;35570;48.218;16.326;2023-04-03T09:06:26;9.80;53.40
49679;DHT22;35570;48.218;16.326;2023-04-03T09:09:53;9.70;54.00
49679;DHT22;35570;48.218;16.326;2023-04-03T09:12:17;9.90;55.20
49679;DHT22;35570;48.218;16.326;2023-04-03T09:15:38;10.00;54.90
49679;DHT22;35570;48.218;16.326;2023-04-03T09:23:31;10.70;52.40
49679;DHT22;35570;48.218;16.326;2023-04-03T09:26:16;10.90;48.50
49679;DHT22;35570;48.218;16.326;2023-04-03T09:28:44;10.80;49.80
49679;DHT22;35570;48.218;16.326;2023-04-03T09:31:20;10.70;51.40
49679;DHT22;35570;48.218;16.326;2023-04-03T09:33:49;10.50;50.90
49679;DHT22;35570;48.218;16.326;2023-04-03T09:36:46;10.40;49.90
49679;DHT22;35570;48.218;16.326;2023-04-03T09:39:18;10.50;50.80
49679;DHT22;35570;48.218;16.326;2023-04-03T09:42:11;10.90;51.20
49679;DHT22;35570;48.218;16.326;2023-04-03T09:44:40;11.50;50.90
49679;DHT22;35570;48.218;16.326;2023-04-03T09:49:48;12.20;47.20
49679;DHT22;35570;48.218;16.326;2023-04-03T09:52:23;12.60;48.20
49679;DHT22;35570;48.218;16.326;2023-04-03T09:54:49;12.90;48.20
49679;DHT22;35570;48.218;16.326;2023-04-03T09:57:16;13.20;46.80
49679;DHT22;35570;48.218;16.326;2023-04-03T09:59:47;13.00;46.70
49679;DHT22;35570;48.218;16.326;2023-04-03T10:02:34;12.30;45.10
49679;DHT22;35570;48.218;16.326;2023-04-03T10:05:04;11.70;46.10
49679;DHT22;35570;48.218;16.326;2023-04-03T10:07:51;11.10;47.80
49679;DHT22;35570;48.218;16.326;2023-04-03T10:10:20;10.70;49.60
49679;DHT22;35570;48.218;16.326;2023-04-03T10:12:58;10.30;50.10
49679;DHT22;35570;48.218;16.326;2023-04-03T10:15:28;10.00;50.70
49679;DHT22;35570;48.218;16.326;2023-04-03T10:18:03;9.70;50.40
49679;DHT22;35570;48.218;16.326;2023-04-03T10:20:47;9.70;53.20
49679;DHT22;35570;48.218;16.326;2023-04-03T10:31:48;9.40;52.50
49679;DHT22;35570;48.218;16.326;2023-04-03T10:34:39;9.40;52.20
49679;DHT22;35570;48.218;16.326;2023-04-03T10:39:56;9.50;52.10
49679;DHT22;35570;48.218;16.326;2023-04-03T10:46:02;9.30;52.50
49679;DHT22;35570;48.218;16.326;2023-04-03T10:48:49;9.10;51.90
49679;DHT22;35570;48.218;16.326;2023-04-03T10:54:37;8.90;51.60
49679;DHT22;35570;48.218;16.326;2023-04-03T10:57:10;9.10;52.60
49679;DHT22;35570;48.218;16.326;2023-04-03T11:06:35;9.20;49.70
49679;DHT22;35570;48.218;16.326;2023-04-03T11:09:15;9.40;50.10
49679;DHT22;35570;48.218;16.326;2023-04-03T11:11:45;9.50;48.70
49679;DHT22;35570;48.218;16.326;2023-04-03T11:17:01;9.40;48.10
49679;DHT22;35570;48.218;16.326;2023-04-03T11:19:34;9.40;48.10
49679;DHT22;35570;48.218;16.326;2023-04-03T11:22:23;9.40;49.50
49679;DHT22;35570;48.218;16.326;2023-04-03T11:27:54;9.10;49.50
49679;DHT22;35570;48.218;16.326;2023-04-03T11:35:23;8.90;47.80
49679;DHT22;35570;48.218;16.326;2023-04-03T11:37:52;9.10;48.40
49679;DHT22;35570;48.218;16.326;2023-04-03T11:40:31;9.10;46.80
49679;DHT22;35570;48.218;16.326;2023-04-03T11:46:01;9.50;46.50
49679;DHT22;35570;48.218;16.326;2023-04-03T11:50:58;9.70;49.60
49679;DHT22;35570;48.218;16.326;2023-04-03T11:53:35;10.10;47.30
49679;DHT22;35570;48.218;16.326;2023-04-03T11:56:04;10.40;46.10
49679;DHT22;35570;48.218;16.326;2023-04-03T11:58:34;10.60;44.30
49679;DHT22;35570;48.218;16.326;2023-04-03T12:29:51;8.70;44.80
49679;DHT22;35570;48.218;16.326;2023-04-03T12:32:43;8.70;47.20
49679;DHT22;35570;48.218;16.326;2023-04-03T12:35:31;8.70;47.40
49679;DHT22;35570;48.218;16.326;2023-04-03T12:46:24;8.70;46.20
49679;DHT22;35570;48.218;16.326;2023-04-03T12:48:58;8.80;46.20
49679;DHT22;35570;48.218;16.326;2023-04-03T12:51:42;8.90;47.00
49679;DHT22;35570;48.218;16.326;2023-04-03T12:54:37;8.80;45.10
49679;DHT22;35570;48.218;16.326;2023-04-03T12:57:22;8.80;47.80
49679;DHT22;35570;48.218;16.326;2023-04-03T12:59:49;8.90;46.70
49679;DHT22;35570;48.218;16.326;2023-04-03T13:02:27;8.90;45.70
49679;DHT22;35570;48.218;16.326;2023-04-03T13:04:55;8.80;44.50
49679;DHT22;35570;48.218;16.326;2023-04-03T13:07:28;8.90;46.60
49679;DHT22;35570;48.218;16.326;2023-04-03T13:10:15;9.00;46.50
49679;DHT22;35570;48.218;16.326;2023-04-03T13:15:42;9.00;46.50
49679;DHT22;35570;48.218;16.326;2023-04-03T13:20:58;8.80;45.90
49679;DHT22;35570;48.218;16.326;2023-04-03T13:23:26;8.80;46.60
49679;DHT22;35570;48.218;16.326;2023-04-03T13:25:52;9.00;45.10
49679;DHT22;35570;48.218;16.326;2023-04-03T13:28:23;9.30;45.00
49679;DHT22;35570;48.218;16.326;2023-04-03T13:33:33;10.00;42.70
49679;DHT22;35570;48.218;16.326;2023-04-03T13:36:19;10.00;43.10
49679;DHT22;35570;48.218;16.326;2023-04-03T13:38:45;10.00;44.20
49679;DHT22;35570;48.218;16.326;2023-04-03T13:41:34;9.80;43.40
49679;DHT22;35570;48.218;16.326;2023-04-03T13:49:43;9.90;46.60
49679;DHT22;35570;48.218;16.326;2023-04-03T13:52:47;10.80;44.80
49679;DHT22;35570;48.218;16.326;2023-04-03T14:00:47;11.00;41.60
49679;DHT22;35570;48.218;16.326;2023-04-03T14:05:50;10.30;43.90
49679;DHT22;35570;48.218;16.326;2023-04-03T14:08:16;9.90;42.50
49679;DHT22;35570;48.218;16.326;2023-04-03T14:10:42;9.60;43.50
49679;DHT22;35570;48.218;16.326;2023-04-03T14:13:14;9.30;46.90
49679;DHT22;35570;48.218;16.326;2023-04-03T14:15:41;9.40;44.70
49679;DHT22;35570;48.218;16.326;2023-04-03T14:18:14;9.50;44.70
49679;DHT22;35570;48.218;16.326;2023-04-03T14:20:40;9.60;44.60
49679;DHT22;35570;48.218;16.326;2023-04-03T14:23:07;9.50;44.50
49679;DHT22;35570;48.218;16.326;2023-04-03T14:25:32;9.50;44.70
49679;DHT22;35570;48.218;16.326;2023-04-03T14:27:59;9.30;45.00
49679;DHT22;35570;48.218;16.326;2023-04-03T14:30:33;9.30;45.50
49679;DHT22;35570;48.218;16.326;2023-04-03T14:32:59;9.10;44.10
49679;DHT22;35570;48.218;16.326;2023-04-03T14:35:25;9.10;46.60
49679;DHT22;35570;48.218;16.326;2023-04-03T14:37:53;9.00;46.00
49679;DHT22;35570;48.218;16.326;2023-04-03T14:40:26;8.90;46.50
49679;DHT22;35570;48.218;16.326;2023-04-03T14:42:53;9.20;45.00
49679;DHT22;35570;48.218;16.326;2023-04-03T14:45:22;9.50;43.90
49679;DHT22;35570;48.218;16.326;2023-04-03T14:47:51;9.90;44.70
49679;DHT22;35570;48.218;16.326;2023-04-03T14:50:21;10.60;42.40
49679;DHT22;35570;48.218;16.326;2023-04-03T14:52:48;11.10;41.30
49679;DHT22;35570;48.218;16.326;2023-04-03T14:55:16;11.80;41.50
49679;DHT22;35570;48.218;16.326;2023-04-03T14:57:42;11.70;40.40
49679;DHT22;35570;48.218;16.326;2023-04-03T15:00:17;11.20;40.50
49679;DHT22;35570;48.218;16.326;2023-04-03T15:02:43;10.60;41.40
49679;DHT22;35570;48.218;16.326;2023-04-03T15:05:11;10.30;43.60
49679;DHT22;35570;48.218;16.326;2023-04-03T15:07:39;10.00;43.10
49679;DHT22;35570;48.218;16.326;2023-04-03T15:10:22;9.80;42.20
49679;DHT22;35570;48.218;16.326;2023-04-03T15:12:54;10.10;43.60
49679;DHT22;35570;48.218;16.326;2023-04-03T15:15:22;10.50;44.60
49679;DHT22;35570;48.218;16.326;2023-04-03T15:17:52;10.90;41.60
49679;DHT22;35570;48.218;16.326;2023-04-03T15:20:27;10.90;41.80
49679;DHT22;35570;48.218;16.326;2023-04-03T15:22:55;10.60;40.70
49679;DHT22;35570;48.218;16.326;2023-04-03T15:25:22;10.20;41.30
49679;DHT22;35570;48.218;16.326;2023-04-03T15:27:48;9.80;42.20
49679;DHT22;35570;48.218;16.326;2023-04-03T15:30:18;9.40;44.10
49679;DHT22;35570;48.218;16.326;2023-04-03T15:32:44;9.40;44.30
49679;DHT22;35570;48.218;16.326;2023-04-03T15:35:10;9.50;44.50
49679;DHT22;35570;48.218;16.326;2023-04-03T15:37:35;9.30;42.10
49679;DHT22;35570;48.218;16.326;2023-04-03T15:40:03;9.10;43.40
49679;DHT22;35570;48.218;16.326;2023-04-03T15:42:30;9.00;44.70
49679;DHT22;35570;48.218;16.326;2023-04-03T15:44:55;8.90;46.40
49679;DHT22;35570;48.218;16.326;2023-04-03T15:47:21;8.70;43.60
49679;DHT22;35570;48.218;16.326;2023-04-03T15:49:47;8.50;43.60
49679;DHT22;35570;48.218;16.326;2023-04-03T15:52:13;8.50;44.40
49679;DHT22;35570;48.218;16.326;2023-04-03T15:54:39;8.40;45.80
49679;DHT22;35570;48.218;16.326;2023-04-03T15:57:05;8.50;46.30
49679;DHT22;35570;48.218;16.326;2023-04-03T15:59:30;8.60;46.30
49679;DHT22;35570;48.218;16.326;2023-04-03T16:01:58;8.50;44.80
49679;DHT22;35570;48.218;16.326;2023-04-03T16:04:25;8.40;45.90
49679;DHT22;35570;48.218;16.326;2023-04-03T16:06:51;8.20;44.70
49679;DHT22;35570;48.218;16.326;2023-04-03T16:09:17;8.10;44.30
49679;DHT22;35570;48.218;16.326;2023-04-03T16:11:43;8.00;46.50
49679;DHT22;35570;48.218;16.326;2023-04-03T16:14:09;7.90;46.80
49679;DHT22;35570;48.218;16.326;2023-04-03T16:16:35;7.80;44.80
49679;DHT22;35570;48.218;16.326;2023-04-03T16:19:02;7.80;46.20
49679;DHT22;35570;48.218;16.326;2023-04-03T16:21:28;7.80;47.60
49679;DHT22;35570;48.218;16.326;2023-04-03T16:23:59;7.90;46.10
49679;DHT22;35570;48.218;16.326;2023-04-03T16:26:25;8.00;45.60
49679;DHT22;35570;48.218;16.326;2023-04-03T16:28:52;8.00;46.60
49679;DHT22;35570;48.218;16.326;2023-04-03T16:31:18;8.10;50.70
49679;DHT22;35570;48.218;16.326;2023-04-03T16:33:44;8.00;51.10
49679;DHT22;35570;48.218;16.326;2023-04-03T16:36:10;8.00;45.90
49679;DHT22;35570;48.218;16.326;2023-04-03T16:38:36;7.70;46.10
49679;DHT22;35570;48.218;16.326;2023-04-03T16:41:02;7.60;45.70
49679;DHT22;35570;48.218;16.326;2023-04-03T16:43:31;7.50;47.90
49679;DHT22;35570;48.218;16.326;2023-04-03T16:45:57;7.50;47.00
49679;DHT22;35570;48.218;16.326;2023-04-03T16:48:24;7.40;48.00
49679;DHT22;35570;48.218;16.326;2023-04-03T16:50:56;7.40;48.00
49679;DHT22;35570;48.218;16.326;2023-04-03T16:53:24;7.40;47.90
49679;DHT22;35570;48.218;16.326;2023-04-03T16:55:50;7.30;46.80
49679;DHT22;35570;48.218;16.326;2023-04-03T16:58:16;7.30;46.70
49679;DHT22;35570;48.218;16.326;2023-04-03T17:00:42;7.10;48.00
49679;DHT22;35570;48.218;16.326;2023-04-03T17:03:08;7.00;46.50
49679;DHT22;35570;48.218;16.326;2023-04-03T17:05:34;7.00;47.10
49679;DHT22;35570;48.218;16.326;2023-04-03T17:08:00;6.90;46.50
49679;DHT22;35570;48.218;16.326;2023-04-03T17:10:28;6.90;47.80
49679;DHT22;35570;48.218;16.326;2023-04-03T17:12:54;6.80;47.30
49679;DHT22;35570;48.218;16.326;2023-04-03T17:15:21;6.80;47.00
49679;DHT22;35570;48.218;16.326;2023-04-03T17:17:49;6.70;47.10
49679;DHT22;35570;48.218;16.326;2023-04-03T17:20:16;6.70;48.20
49679;DHT22;35570;48.218;16.326;2023-04-03T17:22:42;6.70;48.40
49679;DHT22;35570;48.218;16.326;2023-04-03T17:25:10;6.70;47.10
49679;DHT22;35570;48.218;16.326;2023-04-03T17:27:36;6.60;48.40
49679;DHT22;35570;48.218;16.326;2023-04-03T17:30:02;6.60;48.30
49679;DHT22;35570;48.218;16.326;2023-04-03T17:32:29;6.60;48.80
49679;DHT22;35570;48.218;16.326;2023-04-03T17:34:56;6.60;49.10
49679;DHT22;35570;48.218;16.326;2023-04-03T17:37:22;6.60;48.60
49679;DHT22;35570;48.218;16.326;2023-04-03T17:39:48;6.60;49.10
49679;DHT22;35570;48.218;16.326;2023-04-03T17:42:14;6.60;48.90
49679;DHT22;35570;48.218;16.326;2023-04-03T17:44:40;6.50;49.00
49679;DHT22;35570;48.218;16.326;2023-04-03T17:47:12;6.50;48.80
49679;DHT22;35570;48.218;16.326;2023-04-03T17:49:39;6.50;49.40
49679;DHT22;35570;48.218;16.326;2023-04-03T17:52:05;6.50;49.20
49679;DHT22;35570;48.218;16.326;2023-04-03T17:54:31;6.50;49.30
49679;DHT22;35570;48.218;16.326;2023-04-03T17:56:57;6.50;49.10
49679;DHT22;35570;48.218;16.326;2023-04-03T17:59:23;6.50;49.60
49679;DHT22;35570;48.218;16.326;2023-04-03T18:01:49;6.40;48.50
49679;DHT22;35570;48.218;16.326;2023-04-03T18:04:15;6.30;48.80
49679;DHT22;35570;48.218;16.326;2023-04-03T18:06:47;6.30;48.90
49679;DHT22;35570;48.218;16.326;2023-04-03T18:09:18;6.30;52.90
49679;DHT22;35570;48.218;16.326;2023-04-03T18:11:45;6.30;53.60
49679;DHT22;35570;48.218;16.326;2023-04-03T18:14:14;6.40;51.10
49679;DHT22;35570;48.218;16.326;2023-04-03T18:16:41;6.30;48.30
49679;DHT22;35570;48.218;16.326;2023-04-03T18:19:07;6.30;48.40
49679;DHT22;35570;48.218;16.326;2023-04-03T18:21:35;6.30;48.70
49679;DHT22;35570;48.218;16.326;2023-04-03T18:24:03;6.30;49.50
49679;DHT22;35570;48.218;16.326;2023-04-03T18:26:30;6.30;49.00
49679;DHT22;35570;48.218;16.326;2023-04-03T18:29:01;6.30;49.00
49679;DHT22;35570;48.218;16.326;2023-04-03T18:31:30;6.30;49.20
49679;DHT22;35570;48.218;16.326;2023-04-03T18:33:57;6.30;48.10
49679;DHT22;35570;48.218;16.326;2023-04-03T18:36:25;6.20;49.50
49679;DHT22;35570;48.218;16.326;2023-04-03T18:38:52;6.20;49.00
49679;DHT22;35570;48.218;16.326;2023-04-03T18:41:21;6.20;49.30
49679;DHT22;35570;48.218;16.326;2023-04-03T18:43:48;6.10;49.60
49679;DHT22;35570;48.218;16.326;2023-04-03T18:46:16;6.10;49.40
49679;DHT22;35570;48.218;16.326;2023-04-03T18:48:44;6.10;50.90
49679;DHT22;35570;48.218;16.326;2023-04-03T18:51:19;6.10;50.50
49679;DHT22;35570;48.218;16.326;2023-04-03T18:53:46;6.00;50.50
49679;DHT22;35570;48.218;16.326;2023-04-03T18:59:22;5.90;48.90
49679;DHT22;35570;48.218;16.326;2023-04-03T19:01:50;6.00;49.90
49679;DHT22;35570;48.218;16.326;2023-04-03T19:04:18;5.90;50.30
49679;DHT22;35570;48.218;16.326;2023-04-03T19:06:50;6.00;49.50
49679;DHT22;35570;48.218;16.326;2023-04-03T19:09:18;5.90;49.00
49679;DHT22;35570;48.218;16.326;2023-04-03T19:11:45;5.90;49.80
49679;DHT22;35570;48.218;16.326;2023-04-03T19:14:12;5.90;50.70
49679;DHT22;35570;48.218;16.326;2023-04-03T19:16:38;5.90;50.20
49679;DHT22;35570;48.218;16.326;2023-04-03T19:19:06;5.90;49.80
49679;DHT22;35570;48.218;16.326;2023-04-03T19:21:34;5.90;50.10
49679;DHT22;35570;48.218;16.326;2023-04-03T19:24:11;5.90;49.90
49679;DHT22;35570;48.218;16.326;2023-04-03T19:26:43;5.90;50.00
49679;DHT22;35570;48.218;16.326;2023-04-03T19:29:11;5.80;49.00